Weather at Padgham Field

Public forecast

Using degrees Fahrenheit for public forecast. Weather courtesy of forecast.io.

Closest aviation weather report (METAR) to Padgham Field

Closest report is West Michigan Regional Airport, 17.8 nm (33.0 km) NW. Retrieved 2021/05/09 00:53 UTC (8 minutes ago):

KBIV 090053Z AUTO 30003KT 10SM CLR 06/M02 A3007 RMK AO2 SLP187 T00611022

Closest aviation forecast (TAF) to Padgham Field

Closest forecast is Kalamazoo Battle Creek International Airport, 21.5 nm (39.8 km) SE. Retrieved 2021-05-09 00:42 UTC (19 minutes ago):

TAF KAZO 082341Z 0900/0924 30005KT P6SM FEW080 FM091000 09003KT 4SM -RA OVC050 FM091400 10006KT 2SM -RA OVC015 FM091800 06011G19KT 5SM -RA BR OVC012